createdAt,value
2019-06-27T00:00:58.947Z,78.28
2019-06-27T00:03:29.444Z,78.39
2019-06-27T00:06:00.053Z,78.50
2019-06-27T00:08:30.751Z,78.33
2019-06-27T00:11:01.209Z,78.27
2019-06-27T00:13:31.718Z,78.24
2019-06-27T00:16:02.292Z,78.16
2019-06-27T00:18:32.761Z,78.21
2019-06-27T00:21:03.294Z,78.42
2019-06-27T00:23:33.770Z,78.90
2019-06-27T00:26:04.236Z,78.74
2019-06-27T00:28:34.832Z,78.72
2019-06-27T00:31:05.290Z,79.02
2019-06-27T00:33:35.800Z,79.02
2019-06-27T00:36:06.263Z,78.93
2019-06-27T00:38:36.727Z,79.86
2019-06-27T00:41:07.319Z,79.44
2019-06-27T00:43:37.776Z,79.96
2019-06-27T00:46:08.375Z,79.91
2019-06-27T00:48:38.841Z,80.65
2019-06-27T00:51:09.415Z,79.91
2019-06-27T00:53:39.914Z,80.29
2019-06-27T00:56:10.383Z,79.76
2019-06-27T00:58:40.857Z,79.73
2019-06-27T01:01:11.639Z,80.00
2019-06-27T01:03:42.107Z,80.06
2019-06-27T01:06:12.617Z,80.53
2019-06-27T01:08:43.182Z,80.44
2019-06-27T01:11:13.715Z,80.46
2019-06-27T01:13:44.183Z,80.27
2019-06-27T01:16:14.695Z,81.22
2019-06-27T01:18:45.178Z,81.17
2019-06-27T01:21:15.687Z,81.21
2019-06-27T01:23:46.165Z,80.72
2019-06-27T01:26:16.671Z,81.20
2019-06-27T01:28:47.419Z,81.32
2019-06-27T01:31:17.924Z,80.99
2019-06-27T01:33:48.525Z,81.53
2019-06-27T01:36:19.004Z,81.67
2019-06-27T01:38:49.569Z,80.98
2019-06-27T01:41:19.987Z,82.09
2019-06-27T01:43:52.532Z,81.72
2019-06-27T01:46:22.644Z,81.84
2019-06-27T01:48:53.153Z,81.98
2019-06-27T01:51:23.628Z,81.83
2019-06-27T01:53:54.130Z,82.28
2019-06-27T01:56:24.594Z,82.17
2019-06-27T01:58:55.104Z,82.22
2019-06-27T02:01:25.670Z,82.26
2019-06-27T02:03:56.198Z,82.52
2019-06-27T02:06:26.666Z,81.72
2019-06-27T02:08:57.168Z,81.38
2019-06-27T02:11:27.626Z,81.73
2019-06-27T02:13:58.140Z,81.35
2019-06-27T02:16:28.633Z,81.24
2019-06-27T02:18:59.110Z,81.29
2019-06-27T02:21:29.607Z,81.75
2019-06-27T02:24:00.104Z,81.11
2019-06-27T02:26:30.564Z,80.73
2019-06-27T02:29:01.078Z,80.87
2019-06-27T02:31:31.560Z,80.70
2019-06-27T02:34:06.524Z,80.85
2019-06-27T02:36:34.226Z,80.02
2019-06-27T02:39:05.992Z,79.94
2019-06-27T02:41:36.699Z,80.22
2019-06-27T02:44:07.164Z,80.12
2019-06-27T02:46:37.636Z,79.86
2019-06-27T02:49:08.251Z,80.08
2019-06-27T02:51:38.869Z,79.97
2019-06-27T02:54:09.373Z,80.19
2019-06-27T02:56:39.856Z,80.38
2019-06-27T02:59:10.361Z,79.98
2019-06-27T03:01:40.865Z,80.05
2019-06-27T03:04:11.372Z,80.41
2019-06-27T03:06:41.891Z,80.19
2019-06-27T03:09:12.462Z,80.23
2019-06-27T03:11:42.948Z,80.56
2019-06-27T03:14:13.457Z,81.32
2019-06-27T03:16:44.039Z,80.93
2019-06-27T03:19:14.653Z,81.28
2019-06-27T03:21:45.285Z,80.67
2019-06-27T03:24:15.765Z,80.51
2019-06-27T03:26:46.271Z,80.30
2019-06-27T03:29:20.152Z,80.04
2019-06-27T03:31:48.946Z,80.01
2019-06-27T03:34:19.482Z,79.57
2019-06-27T03:36:50.050Z,79.44
2019-06-27T03:39:20.567Z,78.83
2019-06-27T03:41:51.072Z,78.30
2019-06-27T03:44:21.581Z,77.72
2019-06-27T03:46:52.071Z,77.55
2019-06-27T03:49:22.533Z,77.39
2019-06-27T03:51:53.027Z,76.40
2019-06-27T03:54:23.624Z,76.24
2019-06-27T03:56:54.192Z,75.92
2019-06-27T03:59:24.713Z,75.62
2019-06-27T04:01:55.219Z,73.69
2019-06-27T04:04:25.836Z,73.90
2019-06-27T04:06:56.338Z,75.47
2019-06-27T04:09:26.830Z,73.61
2019-06-27T04:11:57.326Z,71.75
2019-06-27T04:14:27.758Z,71.06
2019-06-27T04:16:58.209Z,69.94
2019-06-27T04:19:28.794Z,69.95
2019-06-27T04:21:59.274Z,68.38
2019-06-27T04:24:29.763Z,68.76
2019-06-27T04:27:00.328Z,68.28
2019-06-27T04:29:33.889Z,65.83
2019-06-27T04:32:03.076Z,65.14
2019-06-27T04:34:33.539Z,65.19
2019-06-27T04:37:04.116Z,65.05
2019-06-27T04:39:34.615Z,65.09
2019-06-27T04:42:05.085Z,65.06
2019-06-27T04:44:35.570Z,64.08
2019-06-27T04:47:06.071Z,63.36
2019-06-27T04:49:36.595Z,62.20
2019-06-27T04:52:07.263Z,63.31
2019-06-27T04:54:37.835Z,61.84
2019-06-27T04:57:08.308Z,61.77
2019-06-27T04:59:52.615Z,61.37
2019-06-27T05:02:11.102Z,61.10
2019-06-27T05:04:41.602Z,60.20
2019-06-27T05:07:12.208Z,59.32
2019-06-27T05:09:42.712Z,57.66
2019-06-27T05:12:13.337Z,58.40
2019-06-27T05:14:43.827Z,59.42
2019-06-27T05:17:16.089Z,58.34
2019-06-27T05:19:46.563Z,57.71
2019-06-27T05:22:17.084Z,56.93
2019-06-27T05:24:47.584Z,56.93
2019-06-27T05:27:19.094Z,57.01
2019-06-27T05:29:50.316Z,57.30
2019-06-27T05:32:21.842Z,56.77
2019-06-27T05:34:58.667Z,56.20
2019-06-27T05:37:34.180Z,56.80
2019-06-27T05:40:10.181Z,56.74
2019-06-27T05:42:40.970Z,56.58
2019-06-27T05:45:13.111Z,55.91
2019-06-27T05:47:43.983Z,55.08
2019-06-27T05:50:14.552Z,55.26
2019-06-27T05:52:46.823Z,54.01
2019-06-27T05:55:17.526Z,53.28
2019-06-27T05:57:48.452Z,53.29
2019-06-27T06:00:28.069Z,52.70
2019-06-27T06:02:51.199Z,53.32
2019-06-27T06:05:21.746Z,53.11
2019-06-27T06:07:52.445Z,52.79
2019-06-27T06:10:22.952Z,52.70
2019-06-27T06:12:53.455Z,52.19
2019-06-27T06:15:24.091Z,51.76
2019-06-27T06:17:54.960Z,51.18
2019-06-27T06:20:25.601Z,50.66
2019-06-27T06:22:56.205Z,49.12
2019-06-27T06:25:26.723Z,48.13
2019-06-27T06:27:57.222Z,47.68
2019-06-27T06:30:43.098Z,49.49
2019-06-27T06:33:00.009Z,48.70
2019-06-27T06:35:30.477Z,48.90
2019-06-27T06:38:01.674Z,47.31
2019-06-27T06:40:32.172Z,47.84
2019-06-27T06:43:02.709Z,48.28
2019-06-27T06:45:33.294Z,48.15
2019-06-27T06:48:03.858Z,46.81
2019-06-27T06:50:34.505Z,46.14
2019-06-27T06:53:05.249Z,46.33
2019-06-27T06:55:35.812Z,46.04
2019-06-27T06:58:07.689Z,46.53
2019-06-27T07:00:38.343Z,45.05
2019-06-27T07:03:08.939Z,46.58
2019-06-27T07:05:40.029Z,45.93
2019-06-27T07:08:11.067Z,45.82
2019-06-27T07:10:41.608Z,46.17
2019-06-27T07:13:12.087Z,46.39
2019-06-27T07:15:43.255Z,44.99
2019-06-27T07:18:13.851Z,45.45
2019-06-27T07:20:44.515Z,46.78
2019-06-27T07:23:15.156Z,45.01
2019-06-27T07:25:45.734Z,44.61
2019-06-27T07:28:16.534Z,44.44
2019-06-27T07:30:47.310Z,43.51
2019-06-27T07:33:19.273Z,43.99
2019-06-27T07:35:53.142Z,43.05
2019-06-27T07:38:25.761Z,43.06
2019-06-27T07:40:56.416Z,43.02
2019-06-27T07:43:27.374Z,43.36
2019-06-27T07:45:59.259Z,44.66
2019-06-27T07:48:31.094Z,44.75
2019-06-27T07:51:02.222Z,43.41
2019-06-27T07:53:38.606Z,43.87
2019-06-27T07:56:09.913Z,43.52
2019-06-27T07:58:43.737Z,42.19
2019-06-27T08:01:14.815Z,41.97
2019-06-27T08:03:48.223Z,41.98
2019-06-27T08:06:20.879Z,42.21
2019-06-27T08:08:55.178Z,42.16
2019-06-27T08:11:27.095Z,41.54
2019-06-27T08:13:57.879Z,42.47
2019-06-27T08:16:28.844Z,41.91
2019-06-27T08:18:59.749Z,42.24
2019-06-27T08:21:30.427Z,40.61
2019-06-27T08:24:02.108Z,41.35
2019-06-27T08:26:36.589Z,39.80
2019-06-27T08:29:09.421Z,39.49
2019-06-27T08:31:50.870Z,39.60
2019-06-27T08:34:14.374Z,39.21
2019-06-27T08:36:47.480Z,39.90
2019-06-27T08:39:20.019Z,39.09
2019-06-27T08:41:57.166Z,40.39
2019-06-27T08:44:27.909Z,39.86
2019-06-27T08:46:59.504Z,39.67
2019-06-27T08:49:31.179Z,40.04
2019-06-27T08:52:01.883Z,40.26
2019-06-27T08:54:32.616Z,39.22
2019-06-27T08:57:03.433Z,38.73
2019-06-27T08:59:34.081Z,38.45
2019-06-27T09:02:09.549Z,37.94
2019-06-27T09:04:40.330Z,37.17
2019-06-27T09:07:14.365Z,37.45
2019-06-27T09:09:44.931Z,38.63
2019-06-27T09:12:16.766Z,36.48
2019-06-27T09:14:47.509Z,37.40
2019-06-27T09:17:18.709Z,35.77
2019-06-27T09:19:55.320Z,37.36
2019-06-27T09:22:26.133Z,35.26
2019-06-27T09:24:56.930Z,34.90
2019-06-27T09:27:27.582Z,35.83
2019-06-27T09:29:58.176Z,34.61
2019-06-27T09:32:29.090Z,34.87
2019-06-27T09:34:59.983Z,32.87
2019-06-27T09:37:32.415Z,34.25
2019-06-27T09:40:03.040Z,34.27
2019-06-27T09:42:33.585Z,33.34
2019-06-27T09:45:04.384Z,32.10
2019-06-27T09:47:34.985Z,32.17
2019-06-27T09:50:05.860Z,31.37
2019-06-27T09:52:36.823Z,32.39
2019-06-27T09:55:07.989Z,34.68
2019-06-27T09:57:38.732Z,33.76
2019-06-27T10:00:10.057Z,32.55
2019-06-27T10:02:42.632Z,31.80
2019-06-27T10:05:13.823Z,31.26
2019-06-27T10:07:47.306Z,31.38
2019-06-27T10:10:18.895Z,31.67
2019-06-27T10:12:49.881Z,30.52
2019-06-27T10:15:20.699Z,31.36
2019-06-27T10:17:51.275Z,32.49
2019-06-27T10:20:23.626Z,30.36
2019-06-27T10:22:54.302Z,30.29
2019-06-27T10:25:25.411Z,29.96
2019-06-27T10:27:57.067Z,30.21
2019-06-27T10:30:28.262Z,30.83
2019-06-27T10:33:03.280Z,30.12
2019-06-27T10:35:34.548Z,29.08
2019-06-27T10:38:05.491Z,30.03
2019-06-27T10:40:37.059Z,29.09
2019-06-27T10:43:07.825Z,29.64
2019-06-27T10:45:38.282Z,29.04
2019-06-27T10:48:08.869Z,28.64
2019-06-27T10:50:39.317Z,29.21
2019-06-27T10:53:09.831Z,27.63
2019-06-27T10:55:40.304Z,27.87
2019-06-27T10:58:10.763Z,28.94
2019-06-27T11:00:41.289Z,29.20
2019-06-27T11:03:16.093Z,28.89
2019-06-27T11:05:44.120Z,28.84
2019-06-27T11:08:14.583Z,27.36
2019-06-27T11:10:45.098Z,28.76
2019-06-27T11:13:15.595Z,28.80
2019-06-27T11:15:49.190Z,27.64
2019-06-27T11:18:21.273Z,29.15
2019-06-27T11:20:50.610Z,27.63
2019-06-27T11:23:21.165Z,27.64
2019-06-27T11:25:51.769Z,29.42
2019-06-27T11:28:22.344Z,29.91
2019-06-27T11:30:52.892Z,28.88
2019-06-27T11:33:32.871Z,28.38
2019-06-27T11:35:55.554Z,29.50
2019-06-27T11:38:26.210Z,29.04
2019-06-27T11:40:56.766Z,29.00
2019-06-27T11:43:27.262Z,29.33
2019-06-27T11:45:57.759Z,28.95
2019-06-27T11:48:28.277Z,28.53
2019-06-27T11:50:58.815Z,28.67
2019-06-27T11:53:29.313Z,29.05
2019-06-27T11:55:59.864Z,29.97
2019-06-27T11:58:30.334Z,28.86
2019-06-27T12:01:00.946Z,30.58
2019-06-27T12:03:45.032Z,30.00
2019-06-27T12:06:03.809Z,29.16
2019-06-27T12:08:34.366Z,29.47
2019-06-27T12:11:06.788Z,28.27
2019-06-27T12:13:37.299Z,28.74
2019-06-27T12:16:07.752Z,29.28
2019-06-27T12:18:38.284Z,28.48
2019-06-27T12:21:08.764Z,30.42
2019-06-27T12:23:39.340Z,30.21
2019-06-27T12:26:09.878Z,31.27
2019-06-27T12:28:40.375Z,30.05
2019-06-27T12:31:20.420Z,29.51
2019-06-27T12:33:43.071Z,29.09
2019-06-27T12:36:13.527Z,28.59
2019-06-27T12:38:44.028Z,30.02
2019-06-27T12:41:14.591Z,29.09
2019-06-27T12:43:45.306Z,30.22
2019-06-27T12:46:15.858Z,29.23
2019-06-27T12:48:46.453Z,30.14
2019-06-27T12:51:16.960Z,29.99
2019-06-27T12:53:47.447Z,28.94
2019-06-27T12:56:17.978Z,29.72
2019-06-27T12:58:48.478Z,29.87
2019-06-27T13:01:18.938Z,28.53
2019-06-27T13:03:49.482Z,29.39
2019-06-27T13:06:19.963Z,28.99
2019-06-27T13:08:50.419Z,29.74
2019-06-27T13:11:20.944Z,29.92
2019-06-27T13:13:51.434Z,30.33
2019-06-27T13:16:21.891Z,29.09
2019-06-27T13:18:52.402Z,29.42
2019-06-27T13:21:22.975Z,29.88
2019-06-27T13:23:53.505Z,28.95
2019-06-27T13:26:23.977Z,30.43
2019-06-27T13:28:54.516Z,28.78
2019-06-27T13:31:25.032Z,29.04
2019-06-27T13:33:55.484Z,29.73
2019-06-27T13:36:26.077Z,30.29
2019-06-27T13:38:56.556Z,29.87
2019-06-27T13:41:27.085Z,30.84
2019-06-27T13:43:57.535Z,28.73
2019-06-27T13:46:28.053Z,29.21
2019-06-27T13:48:58.585Z,29.77
2019-06-27T13:51:29.131Z,29.81
2019-06-27T13:53:59.633Z,28.73
2019-06-27T13:56:30.194Z,29.90
2019-06-27T13:59:00.884Z,31.67
2019-06-27T14:01:31.337Z,29.15
2019-06-27T14:04:01.845Z,29.26
2019-06-27T14:06:32.403Z,29.12
2019-06-27T14:09:03.052Z,30.07
2019-06-27T14:11:33.797Z,29.73
2019-06-27T14:14:04.465Z,30.94
2019-06-27T14:16:35.002Z,28.88
2019-06-27T14:19:05.521Z,28.74
2019-06-27T14:21:35.999Z,29.80
2019-06-27T14:24:06.633Z,29.54
2019-06-27T14:26:37.384Z,28.12
2019-06-27T14:29:07.873Z,29.82
2019-06-27T14:31:38.467Z,29.48
2019-06-27T14:34:09.083Z,29.50
2019-06-27T14:36:39.544Z,30.20
2019-06-27T14:39:10.063Z,30.01
2019-06-27T14:41:40.622Z,29.91
2019-06-27T14:44:11.119Z,29.69
2019-06-27T14:46:41.575Z,29.99
2019-06-27T14:49:12.174Z,30.38
2019-06-27T14:51:42.633Z,30.08
2019-06-27T14:54:13.123Z,28.61
2019-06-27T14:56:43.582Z,28.29
2019-06-27T14:59:14.678Z,29.61
2019-06-27T15:01:45.227Z,30.02
2019-06-27T15:04:15.730Z,29.91
2019-06-27T15:06:46.327Z,30.03
2019-06-27T15:09:16.803Z,30.68
2019-06-27T15:11:47.301Z,29.96
2019-06-27T15:14:17.760Z,29.74
2019-06-27T15:16:48.220Z,29.36
2019-06-27T15:19:18.717Z,29.21
2019-06-27T15:21:49.212Z,29.68
2019-06-27T15:24:19.687Z,29.54
2019-06-27T15:26:50.179Z,29.94
2019-06-27T15:29:20.640Z,30.48
2019-06-27T15:31:51.148Z,30.08
2019-06-27T15:34:21.591Z,29.50
2019-06-27T15:36:52.079Z,30.47
2019-06-27T15:39:22.550Z,29.85
2019-06-27T15:41:53.050Z,29.97
2019-06-27T15:44:23.506Z,29.91
2019-06-27T15:46:54.530Z,30.30
2019-06-27T15:49:25.030Z,30.61
2019-06-27T15:51:55.558Z,30.53
2019-06-27T15:54:26.037Z,30.99
2019-06-27T15:56:56.629Z,30.92
2019-06-27T15:59:27.083Z,30.54
2019-06-27T16:01:57.565Z,30.63
2019-06-27T16:04:34.003Z,30.53
2019-06-27T16:07:00.582Z,30.51
2019-06-27T16:09:31.196Z,30.67
2019-06-27T16:12:01.763Z,30.86
2019-06-27T16:14:32.285Z,29.89
2019-06-27T16:17:02.742Z,30.26
2019-06-27T16:19:33.247Z,30.76
2019-06-27T16:22:03.705Z,31.35
2019-06-27T16:24:34.187Z,31.28
2019-06-27T16:27:04.745Z,31.54
2019-06-27T16:29:35.252Z,31.44
2019-06-27T16:32:05.836Z,31.50
2019-06-27T16:34:36.279Z,31.96
2019-06-27T16:37:06.875Z,32.02
2019-06-27T16:39:38.986Z,32.00
2019-06-27T16:42:09.802Z,31.93
2019-06-27T16:44:40.246Z,31.87
2019-06-27T16:47:10.894Z,32.12
2019-06-27T16:49:41.386Z,32.45
2019-06-27T16:52:11.902Z,32.46
2019-06-27T16:54:42.387Z,32.38
2019-06-27T16:57:12.889Z,32.68
2019-06-27T16:59:43.392Z,33.25
2019-06-27T17:02:13.848Z,33.80
2019-06-27T17:04:44.327Z,34.23
2019-06-27T17:07:14.813Z,34.78
2019-06-27T17:09:45.295Z,35.09
2019-06-27T17:12:15.769Z,35.64
2019-06-27T17:14:46.293Z,35.52
2019-06-27T17:17:16.754Z,35.36
2019-06-27T17:19:47.219Z,35.34
2019-06-27T17:22:17.728Z,35.56
2019-06-27T17:24:48.220Z,36.30
2019-06-27T17:27:18.675Z,36.28
2019-06-27T17:29:49.136Z,36.57
2019-06-27T17:32:19.628Z,36.80
2019-06-27T17:34:50.064Z,37.40
2019-06-27T17:37:20.511Z,38.38
2019-06-27T17:39:50.998Z,38.53
2019-06-27T17:42:21.481Z,38.89
2019-06-27T17:44:51.926Z,39.44
2019-06-27T17:47:22.445Z,40.65
2019-06-27T17:49:52.924Z,41.00
2019-06-27T17:52:23.412Z,41.31
2019-06-27T17:54:53.904Z,41.45
2019-06-27T17:57:24.578Z,41.87
2019-06-27T17:59:55.054Z,42.08
2019-06-27T18:02:25.556Z,42.21
2019-06-27T18:04:56.045Z,42.66
2019-06-27T18:07:26.512Z,42.53
2019-06-27T18:09:57.035Z,42.66
2019-06-27T18:12:27.479Z,42.82
2019-06-27T18:14:58.000Z,43.44
2019-06-27T18:17:33.642Z,46.42
2019-06-27T18:20:00.667Z,45.23
2019-06-27T18:22:32.900Z,45.22
2019-06-27T18:25:03.506Z,45.37
2019-06-27T18:36:32.394Z,47.08
2019-06-27T18:39:02.855Z,47.35
2019-06-27T18:41:33.369Z,47.76
2019-06-27T18:44:03.946Z,48.25
2019-06-27T18:46:34.448Z,48.28
2019-06-27T18:49:04.924Z,48.23
2019-06-27T18:51:35.401Z,47.90
2019-06-27T18:54:06.001Z,47.53
2019-06-27T18:56:36.532Z,48.12
2019-06-27T18:59:06.989Z,47.27
2019-06-27T19:01:37.501Z,46.96
2019-06-27T19:04:07.988Z,46.66
2019-06-27T19:06:38.480Z,46.88
2019-06-27T19:09:09.080Z,46.52
2019-06-27T19:11:39.543Z,46.27
2019-06-27T19:14:10.081Z,46.04
2019-06-27T19:16:40.622Z,45.70
2019-06-27T19:19:13.658Z,45.77
2019-06-27T19:21:54.294Z,45.48
2019-06-27T19:24:52.628Z,45.56
2019-06-27T19:27:23.124Z,46.47
2019-06-27T19:29:53.629Z,46.88
2019-06-27T19:32:24.132Z,46.53
2019-06-27T19:34:54.636Z,46.59
2019-06-27T19:37:25.099Z,45.91
2019-06-27T19:39:55.592Z,45.68
2019-06-27T19:42:26.055Z,45.01
2019-06-27T19:44:56.563Z,44.23
2019-06-27T19:47:27.037Z,43.96
2019-06-27T19:49:57.502Z,44.21
2019-06-27T19:52:28.003Z,44.14
2019-06-27T19:54:58.455Z,44.08
2019-06-27T19:57:29.232Z,44.26
2019-06-27T19:59:59.696Z,44.47
2019-06-27T20:02:30.310Z,45.17
2019-06-27T20:05:00.765Z,45.15
2019-06-27T20:07:31.481Z,46.19
2019-06-27T20:10:02.002Z,46.23
2019-06-27T20:12:32.521Z,46.19
2019-06-27T20:15:03.086Z,46.26
2019-06-27T20:17:33.535Z,46.70
2019-06-27T20:20:04.266Z,46.85
2019-06-27T20:22:34.729Z,46.85
2019-06-27T20:25:05.522Z,46.92
2019-06-27T20:27:35.988Z,46.78
2019-06-27T20:30:07.268Z,47.11
2019-06-27T20:32:37.761Z,47.22
2019-06-27T20:35:09.011Z,47.41
2019-06-27T20:37:39.715Z,47.47
2019-06-27T20:40:10.376Z,47.90
2019-06-27T20:42:40.861Z,48.07
2019-06-27T20:45:11.901Z,48.52
2019-06-27T20:47:42.417Z,49.05
2019-06-27T20:50:13.523Z,48.89
2019-06-27T20:52:43.979Z,49.02
2019-06-27T20:55:14.568Z,49.61
2019-06-27T20:57:45.020Z,49.63
2019-06-27T21:00:15.813Z,49.83
2019-06-27T21:02:46.298Z,50.06
2019-06-27T21:05:16.848Z,50.05
2019-06-27T21:07:47.492Z,50.05
2019-06-27T21:10:18.068Z,50.13
2019-06-27T21:12:48.619Z,49.87
2019-06-27T21:15:20.921Z,49.77
2019-06-27T21:17:51.360Z,49.86
2019-06-27T21:20:21.918Z,49.62
2019-06-27T21:22:52.622Z,49.91
2019-06-27T21:25:23.175Z,49.89
2019-06-27T21:27:53.659Z,50.00
2019-06-27T21:30:24.558Z,50.05
2019-06-27T21:32:55.064Z,50.02
2019-06-27T21:35:25.550Z,49.80
2019-06-27T21:37:56.028Z,49.99
2019-06-27T21:40:26.575Z,49.93
2019-06-27T21:42:57.065Z,50.25
2019-06-27T21:45:27.512Z,50.01
2019-06-27T21:47:58.217Z,49.96
2019-06-27T21:50:28.677Z,49.83
2019-06-27T21:52:59.172Z,49.27
2019-06-27T21:55:29.731Z,49.04
2019-06-27T21:58:00.408Z,48.83
2019-06-27T22:00:33.517Z,48.46
2019-06-27T22:03:04.240Z,48.84
2019-06-27T22:05:34.829Z,48.84
2019-06-27T22:08:05.523Z,48.96
2019-06-27T22:10:36.010Z,48.94
2019-06-27T22:13:06.591Z,48.64
2019-06-27T22:15:37.076Z,48.64
2019-06-27T22:18:07.634Z,49.05
2019-06-27T22:20:39.636Z,48.89
2019-06-27T22:23:10.394Z,48.85
2019-06-27T22:25:41.254Z,49.15
2019-06-27T22:28:11.945Z,49.24
2019-06-27T22:30:42.391Z,49.61
2019-06-27T22:33:12.849Z,49.77
2019-06-27T22:35:43.334Z,49.97
2019-06-27T22:38:31.311Z,50.28
2019-06-27T22:41:19.496Z,50.40
2019-06-27T22:44:07.600Z,50.39
2019-06-27T22:46:55.256Z,50.20
2019-06-27T22:49:24.847Z,49.91
2019-06-27T22:52:17.079Z,49.79
2019-06-27T22:54:49.178Z,50.71
2019-06-27T22:57:19.746Z,50.75
2019-06-27T22:59:50.240Z,50.80
2019-06-27T23:02:20.743Z,50.62
2019-06-27T23:04:51.230Z,50.65
2019-06-27T23:07:21.793Z,50.47
2019-06-27T23:09:56.863Z,50.77
2019-06-27T23:12:24.586Z,50.65
2019-06-27T23:14:55.086Z,50.81
2019-06-27T23:17:25.529Z,51.00
2019-06-27T23:19:56.015Z,51.23
2019-06-27T23:22:26.534Z,51.44
2019-06-27T23:24:56.976Z,52.20
2019-06-27T23:27:27.429Z,52.65
2019-06-27T23:29:57.976Z,52.42
2019-06-27T23:32:28.436Z,52.35
2019-06-27T23:34:58.927Z,52.35
2019-06-27T23:37:29.375Z,52.19
2019-06-27T23:40:13.457Z,52.12
2019-06-27T23:42:32.067Z,51.96
2019-06-27T23:45:02.557Z,51.88
2019-06-27T23:47:35.855Z,51.95
2019-06-27T23:50:06.400Z,52.21
2019-06-27T23:52:36.864Z,52.55
2019-06-27T23:55:07.773Z,52.67
2019-06-27T23:57:38.223Z,52.34
